createdAt,value
2018-11-20T00:06:03.461Z,6.67
2018-11-20T00:14:42.306Z,7.37
2018-11-20T00:23:31.310Z,5.93
2018-11-20T00:31:58.174Z,6.80
2018-11-20T00:40:25.074Z,8.37
2018-11-20T00:48:52.134Z,8.20
2018-11-20T00:57:19.259Z,8.57
2018-11-20T01:02:00.873Z,11.47
2018-11-20T01:06:42.493Z,8.90
2018-11-20T01:11:24.094Z,7.87
2018-11-20T01:16:05.714Z,10.00
2018-11-20T01:20:47.316Z,9.13
2018-11-20T01:25:28.934Z,9.30
2018-11-20T01:30:10.564Z,9.90
2018-11-20T01:34:52.194Z,9.17
2018-11-20T01:39:33.793Z,10.43
2018-11-20T01:44:15.406Z,9.80
2018-11-20T01:48:57.010Z,10.17
2018-11-20T01:53:29.258Z,9.60
2018-11-20T01:58:10.866Z,9.90
2018-11-20T02:02:52.484Z,11.07
2018-11-20T02:07:26.806Z,9.60
2018-11-20T02:16:40.323Z,9.83
2018-11-20T02:21:22.173Z,9.00
2018-11-20T02:26:03.817Z,8.80
2018-11-20T02:30:45.425Z,9.83
2018-11-20T02:35:27.042Z,8.20
2018-11-20T02:40:08.650Z,9.33
2018-11-20T02:44:50.268Z,9.00
2018-11-20T02:49:31.869Z,8.50
2018-11-20T02:54:13.512Z,9.17
2018-11-20T02:58:55.637Z,9.93
2018-11-20T03:03:37.310Z,8.77
2018-11-20T03:08:19.404Z,8.97
2018-11-20T03:13:01.033Z,9.10
2018-11-20T03:17:42.642Z,8.53
2018-11-20T03:22:24.257Z,9.80
2018-11-20T03:27:05.962Z,9.00
2018-11-20T03:31:47.488Z,10.10
2018-11-20T03:36:29.088Z,12.20
2018-11-20T03:41:10.710Z,9.70
2018-11-20T03:45:52.383Z,10.47
2018-11-20T03:50:34.000Z,10.60
2018-11-20T04:00:08.053Z,11.60
2018-11-20T04:04:49.666Z,11.13
2018-11-20T04:09:31.288Z,11.17
2018-11-20T04:14:10.759Z,9.50
2018-11-20T04:18:52.380Z,16.83
2018-11-20T04:23:34.514Z,11.70
2018-11-20T04:32:51.862Z,12.97
2018-11-20T04:37:33.464Z,16.47
2018-11-20T04:42:11.146Z,11.63
2018-11-20T04:46:52.754Z,11.27
2018-11-20T04:51:34.375Z,13.63
2018-11-20T04:56:15.975Z,14.40
2018-11-20T05:00:57.600Z,13.57
2018-11-20T05:05:30.154Z,13.87
2018-11-20T05:10:11.802Z,17.50
2018-11-20T05:14:53.405Z,15.17
2018-11-20T05:19:35.023Z,15.70
2018-11-20T05:24:16.649Z,11.47
2018-11-20T05:28:58.266Z,15.33
2018-11-20T05:33:31.289Z,14.87
2018-11-20T05:38:12.918Z,18.77
2018-11-20T05:42:54.524Z,14.90
2018-11-20T05:47:27.044Z,16.00
2018-11-20T05:52:08.647Z,12.40
2018-11-20T05:56:50.329Z,12.77
2018-11-20T06:01:31.943Z,13.60
2018-11-20T06:06:13.672Z,15.57
2018-11-20T06:10:55.160Z,13.27
2018-11-20T06:15:37.322Z,15.03
2018-11-20T06:20:18.943Z,12.63
2018-11-20T06:25:00.619Z,13.60
2018-11-20T06:29:42.757Z,14.07
2018-11-20T06:34:24.683Z,17.13
2018-11-20T06:39:06.243Z,15.70
2018-11-20T06:43:40.469Z,19.03
2018-11-20T06:48:22.076Z,16.27
2018-11-20T06:53:03.796Z,16.93
2018-11-20T06:57:45.303Z,21.17
2018-11-20T07:02:26.919Z,16.60
2018-11-20T07:07:08.594Z,17.93
2018-11-20T07:11:50.166Z,20.87
2018-11-20T07:16:31.845Z,17.03
2018-11-20T07:21:04.165Z,17.00
2018-11-20T07:25:45.764Z,19.70
2018-11-20T07:30:27.457Z,16.40
2018-11-20T07:35:09.003Z,18.40
2018-11-20T07:39:50.621Z,14.37
2018-11-20T07:44:19.476Z,16.97
2018-11-20T07:49:01.039Z,17.10
2018-11-20T07:53:32.487Z,18.60
2018-11-20T07:58:14.648Z,20.50
2018-11-20T08:02:56.248Z,15.97
2018-11-20T08:07:38.645Z,15.70
2018-11-20T08:12:20.253Z,20.87
2018-11-20T08:17:01.870Z,14.70
2018-11-20T08:21:34.729Z,15.57
2018-11-20T08:26:16.553Z,20.20
2018-11-20T08:30:57.980Z,18.47
2018-11-20T08:35:30.145Z,21.80
2018-11-20T08:40:11.798Z,18.43
2018-11-20T08:44:53.426Z,19.30
2018-11-20T08:49:35.033Z,19.20
2018-11-20T08:59:02.059Z,19.23
2018-11-20T09:03:43.661Z,23.73
2018-11-20T09:08:25.280Z,16.10
2018-11-20T09:13:06.892Z,17.70
2018-11-20T09:17:48.545Z,17.70
2018-11-20T09:22:30.123Z,17.40
2018-11-20T09:27:11.759Z,17.47
2018-11-20T09:31:53.354Z,16.27
2018-11-20T09:36:34.983Z,16.77
2018-11-20T09:41:17.113Z,21.30
2018-11-20T09:45:58.732Z,17.97
2018-11-20T09:50:40.340Z,18.93
2018-11-20T09:55:21.967Z,23.53
2018-11-20T10:00:03.566Z,20.00
2018-11-20T10:04:45.185Z,18.60
2018-11-20T10:09:26.788Z,19.70
2018-11-20T10:13:49.942Z,16.17
2018-11-20T10:23:28.638Z,18.47
2018-11-20T10:28:10.243Z,19.00
2018-11-20T10:32:51.865Z,17.47
2018-11-20T10:37:21.996Z,17.63
2018-11-20T10:42:04.151Z,20.27
2018-11-20T10:46:45.838Z,17.40
2018-11-20T10:51:27.385Z,19.20
2018-11-20T10:56:08.987Z,17.63
2018-11-20T11:00:50.607Z,18.40
2018-11-20T11:05:51.802Z,20.27
2018-11-20T11:10:31.557Z,18.30
2018-11-20T11:20:14.688Z,19.50
2018-11-20T11:24:56.258Z,17.27
2018-11-20T11:29:37.877Z,19.77
2018-11-20T11:34:19.480Z,17.63
2018-11-20T11:39:01.100Z,17.60
2018-11-20T11:43:42.705Z,19.47
2018-11-20T11:48:18.854Z,17.93
2018-11-20T12:06:04.224Z,19.07
2018-11-20T12:28:01.728Z,21.27
2018-11-20T12:49:38.932Z,23.30
2018-11-20T13:24:26.313Z,19.60
2018-11-20T14:32:30.638Z,24.20
2018-11-20T15:45:12.095Z,22.97
2018-11-20T16:07:14.720Z,24.90
2018-11-20T16:28:52.896Z,18.33
2018-11-20T16:41:42.173Z,19.73
2018-11-20T17:50:07.146Z,23.80
2018-11-20T18:20:12.432Z,22.40
2018-11-20T18:33:20.309Z,27.33
2018-11-20T18:58:49.221Z,24.83
2018-11-20T19:07:16.349Z,27.70
2018-11-20T19:16:05.627Z,26.07
2018-11-20T19:24:56.090Z,28.03
2018-11-20T19:33:23.457Z,28.80
2018-11-20T19:41:50.527Z,28.93
2018-11-20T19:50:17.870Z,30.13
2018-11-20T19:59:09.784Z,34.00
2018-11-20T20:07:36.326Z,28.93
2018-11-20T20:11:58.878Z,31.13
2018-11-20T20:16:41.127Z,28.60
2018-11-20T20:21:22.781Z,34.63
2018-11-20T20:26:04.405Z,33.40
2018-11-20T20:30:46.017Z,32.80
2018-11-20T20:35:27.636Z,34.03
2018-11-20T20:40:09.483Z,33.43
2018-11-20T20:44:51.101Z,36.80
2018-11-20T20:49:32.705Z,33.60
2018-11-20T20:54:14.328Z,40.73
2018-11-20T20:58:55.973Z,33.50
2018-11-20T21:03:37.588Z,34.10
2018-11-20T21:08:19.193Z,33.23
2018-11-20T21:13:00.818Z,40.67
2018-11-20T21:17:42.425Z,39.33
2018-11-20T21:22:24.647Z,34.83
2018-11-20T21:27:06.258Z,32.90
2018-11-20T21:31:48.419Z,38.20
2018-11-20T21:36:30.021Z,35.13
2018-11-20T21:41:11.641Z,35.00
2018-11-20T21:45:45.959Z,33.43
2018-11-20T21:50:27.594Z,37.40
2018-11-20T21:55:09.196Z,34.60
2018-11-20T21:59:50.817Z,34.23
2018-11-20T22:04:23.422Z,35.00
2018-11-20T22:09:05.033Z,34.20
2018-11-20T22:13:47.180Z,32.27
2018-11-20T22:18:28.808Z,31.83
2018-11-20T22:23:10.414Z,32.53
2018-11-20T22:27:52.031Z,34.33
2018-11-20T22:32:33.633Z,32.03
2018-11-20T22:41:48.803Z,35.17
2018-11-20T22:46:30.409Z,31.03
2018-11-20T22:51:12.030Z,37.67
2018-11-20T23:00:53.709Z,34.03
2018-11-20T23:05:35.007Z,29.20
2018-11-20T23:09:57.738Z,36.47
2018-11-20T23:14:20.458Z,31.13
2018-11-20T23:27:54.832Z,32.17
2018-11-20T23:32:17.670Z,30.70
2018-11-20T23:41:15.418Z,32.33
2018-11-20T23:45:38.758Z,30.20
2018-11-20T23:54:37.132Z,29.40
2018-11-20T23:58:59.856Z,30.70
